Terminal Aerodrome Forecast
Issued by NWS Sterling, VA

Current Version | Previous Version | Graphics & Text | Print | Product List | Glossary Off
Versions: 1 2 3 4 5 6 7 8 9 10 11 12 13 14 15

764
FTUS41 KLWX 250522
TAFMRB
TAF
KMRB 250522Z 2506/2606 02007KT 6SM -RA BKN015 OVC030
     FM250800 02007KT 6SM -DZ BR BKN008 OVC015
     FM251400 02008G16KT 5SM -RADZ BKN008 OVC015
     FM252100 02005KT 5SM -RA BKN008 OVC015=

USA.gov is the U.S. government's official web portal to all federal, state and local government web resources and services.